Response — WDA9597 — position and weather

sailwx.info

Track history (hours):
 
Tides and Currents Weather Stations Pressure Air Temp Water Temp Dewpoint Dewpoint Depression Visibility Wind Speed Wind Dir Waves Ship Positions

Response

Owner: VESSEL MANAGEMENT SERVICES INC, SEATTLE, WA. More information available from US FCC via Universal Licensing System and Coast Guard Vessel Documentation Center.

Last reported at 2017-Oct-18 23:54 UTC. Time now 2017-Oct-19 00:27 UTC.
Position N 48°49' W 122°43'.

Length 40 m; draft 6.1 m.

Type: Tug. MMSI: 366866930.

Date/timePositionNaut miles runAvg speedWind from/ knotsBaromVisibWave heightAir tempDewpointWater temp
2017-Oct-18 23:54N 48°49' W 122°43'2 4.7
2017-Oct-18 23:25N 48°51' W 122°45'0 1.1
2017-Oct-18 22:57N 48°51' W 122°46'0 0.3
2017-Oct-18 22:25N 48°51' W 122°46'0 0.2
2017-Oct-18 21:59N 48°51' W 122°46'0 0.2
2017-Oct-18 21:26N 48°51' W 122°46'0 0.6
2017-Oct-18 21:00N 48°51' W 122°45'610.0
2017-Oct-18 20:22N 48°45' W 122°43'0 0.1
2017-Oct-18 20:00N 48°45' W 122°43'0 0.1
2017-Oct-18 19:18N 48°45' W 122°43'0 0.0
2017-Oct-18 18:20N 48°45' W 122°43'0 0.0
2017-Oct-18 17:58N 48°45' W 122°43'0 0.0
2017-Oct-18 17:30N 48°45' W 122°43'0 0.3
2017-Oct-18 16:54N 48°45' W 122°43'0 0.1
2017-Oct-18 16:28N 48°45' W 122°43'0 0.0
2017-Oct-18 14:58N 48°45' W 122°43'0 0.0
2017-Oct-18 13:58N 48°45' W 122°43'0 0.0
2017-Oct-18 13:30N 48°45' W 122°43'0 0.0
2017-Oct-18 12:59N 48°45' W 122°43'0 0.0
2017-Oct-18 12:30N 48°45' W 122°43'0 0.0
2017-Oct-18 11:54N 48°45' W 122°43'0 0.0
2017-Oct-18 11:27N 48°45' W 122°43'0 0.0
2017-Oct-18 10:58N 48°45' W 122°43'0 0.0
2017-Oct-18 10:29N 48°45' W 122°43'0 0.0
2017-Oct-18 10:00N 48°45' W 122°43'0 0.0
2017-Oct-18 09:26N 48°45' W 122°43'0 0.0
2017-Oct-18 08:58N 48°45' W 122°43'0 0.0
2017-Oct-18 08:30N 48°45' W 122°43'0 0.0
2017-Oct-18 07:55N 48°45' W 122°43'0 0.0
2017-Oct-18 07:21N 48°45' W 122°43'0 0.0
2017-Oct-18 07:00N 48°45' W 122°43'0 0.0
2017-Oct-18 06:29N 48°45' W 122°43'0 0.1
2017-Oct-18 06:00N 48°45' W 122°43'0 0.0
2017-Oct-18 05:30N 48°45' W 122°43'0 0.0
2017-Oct-18 04:43N 48°45' W 122°43'1 1.2
2017-Oct-18 04:15N 48°45' W 122°44'2 5.8
2017-Oct-18 03:55N 48°44' W 122°44'2 5.8
2017-Oct-18 03:30N 48°41' W 122°42'3 6.5
2017-Oct-18 03:00N 48°39' W 122°39'4 7.1
2017-Oct-18 02:30N 48°36' W 122°36'4 7.2
2017-Oct-18 01:59N 48°32' W 122°34'2 4.6
2017-Oct-18 01:30N 48°31' W 122°37'0 0.0
2017-Oct-18 01:00N 48°31' W 122°37'0 0.0
2017-Oct-18 00:30N 48°31' W 122°37'0 0.0
2017-Oct-18 00:00N 48°31' W 122°37'0 0.0
2017-Oct-17 23:30N 48°31' W 122°37'0 0.0
2017-Oct-17 23:00N 48°31' W 122°37'0 0.0
2017-Oct-17 22:30N 48°31' W 122°37'0 0.0
2017-Oct-17 22:00N 48°31' W 122°37'0 0.0
2017-Oct-17 21:30N 48°31' W 122°37'0 0.0
2017-Oct-17 21:00N 48°31' W 122°37'0 0.0
2017-Oct-17 20:30N 48°31' W 122°37'0 0.0
2017-Oct-17 20:00N 48°31' W 122°37'0 0.0
2017-Oct-17 19:30N 48°31' W 122°37'0 0.0
2017-Oct-17 19:01N 48°31' W 122°37'0 0.0
2017-Oct-17 18:30N 48°31' W 122°37'0 0.0
2017-Oct-17 18:00N 48°31' W 122°37'0 0.0
2017-Oct-17 17:30N 48°31' W 122°37'0 0.0
2017-Oct-17 17:00N 48°31' W 122°37'0 0.0
2017-Oct-17 16:30N 48°31' W 122°37'0 0.0
2017-Oct-17 16:00N 48°31' W 122°37'0 0.0
2017-Oct-17 15:30N 48°31' W 122°37'0 0.0
2017-Oct-17 15:00N 48°31' W 122°37'0 0.0
2017-Oct-17 14:30N 48°31' W 122°37'0 0.0
2017-Oct-17 14:00N 48°31' W 122°37'0 0.0
2017-Oct-17 13:30N 48°31' W 122°37'0 0.0
2017-Oct-17 13:00N 48°31' W 122°37'0 0.0
2017-Oct-17 12:30N 48°31' W 122°37'0 0.0
2017-Oct-17 12:00N 48°31' W 122°37'0 0.0
2017-Oct-17 11:30N 48°31' W 122°37'2 3.0
2017-Oct-17 10:59N 48°31' W 122°35'0 0.0
2017-Oct-17 10:27N 48°31' W 122°35'1 1.7
2017-Oct-17 09:48N 48°31' W 122°36'2 6.1
2017-Oct-17 09:30N 48°31' W 122°39'4 8.7
2017-Oct-17 09:00N 48°35' W 122°40'510.7
2017-Oct-17 08:30N 48°40' W 122°41'611.8
2017-Oct-17 08:00N 48°46' W 122°45'611.3
2017-Oct-17 07:30N 48°51' W 122°46'0 0.6
2017-Oct-17 06:58N 48°52' W 122°46'0 0.3
2017-Oct-17 06:29N 48°52' W 122°46'0 0.3
2017-Oct-17 06:00N 48°52' W 122°46'0 0.4
2017-Oct-17 05:29N 48°52' W 122°46'2 3.2
2017-Oct-17 04:52N 48°50' W 122°45'5 9.4
2017-Oct-17 04:22N 48°45' W 122°44'3 7.7
2017-Oct-17 03:59N 48°42' W 122°43'4 7.6
2017-Oct-17 03:30N 48°39' W 122°40'4 8.2
2017-Oct-17 03:00N 48°36' W 122°37'4 8.4
2017-Oct-17 02:30N 48°32' W 122°34'2 4.4
2017-Oct-17 02:00N 48°31' W 122°37'0 0.0
2017-Oct-17 01:30N 48°31' W 122°37'0 0.0
2017-Oct-17 01:00N 48°31' W 122°37'0 0.0
2017-Oct-17 00:30N 48°31' W 122°37'0 0.0
2017-Oct-17 00:00N 48°31' W 122°37'0 0.0
2017-Oct-16 23:30N 48°31' W 122°37'0 0.0
2017-Oct-16 23:00N 48°31' W 122°37'0 0.0
2017-Oct-16 22:30N 48°31' W 122°37'0 0.0
2017-Oct-16 22:00N 48°31' W 122°37'1 2.7
2017-Oct-16 21:29N 48°31' W 122°35'0 0.4
2017-Oct-16 20:57N 48°31' W 122°35'0 0.0
2017-Oct-16 19:52N 48°31' W 122°35'0 0.3
2017-Oct-16 19:30N 48°31' W 122°35'1 1.3
2017-Oct-16 18:53N 48°31' W 122°36'1 1.8
2017-Oct-16 18:30N 48°31' W 122°37'0 0.0
2017-Oct-16 18:00N 48°31' W 122°37'0 0.0
2017-Oct-16 17:30N 48°31' W 122°37'0 0.0
2017-Oct-16 17:00N 48°31' W 122°37'0 0.0
2017-Oct-16 16:30N 48°31' W 122°37'0 0.0
2017-Oct-16 16:00N 48°31' W 122°37'0 0.0
2017-Oct-16 15:30N 48°31' W 122°37'0 0.0
2017-Oct-16 15:00N 48°31' W 122°37'0 0.0
2017-Oct-16 14:00N 48°31' W 122°37'0 0.0
2017-Oct-16 13:30N 48°31' W 122°37'0 0.0
2017-Oct-16 13:00N 48°31' W 122°37'0 0.0
2017-Oct-16 12:30N 48°31' W 122°37'0 0.0
2017-Oct-16 12:00N 48°31' W 122°37'0 0.0
2017-Oct-16 11:30N 48°31' W 122°37'0 0.0
2017-Oct-16 11:00N 48°31' W 122°37'0 0.0
2017-Oct-16 10:30N 48°31' W 122°37'0 0.0
2017-Oct-16 10:00N 48°31' W 122°37'0 0.0
2017-Oct-16 09:30N 48°31' W 122°37'0 0.0
2017-Oct-16 09:00N 48°31' W 122°37'0 0.0
2017-Oct-16 08:30N 48°31' W 122°37'0 0.0
2017-Oct-16 08:00N 48°31' W 122°37'0 0.0
2017-Oct-16 07:30N 48°31' W 122°37'0 0.0
2017-Oct-16 07:00N 48°31' W 122°37'0 0.0
2017-Oct-16 06:30N 48°31' W 122°37'0 0.0
2017-Oct-16 06:00N 48°31' W 122°37'0 0.1
2017-Oct-16 05:30N 48°31' W 122°37'3 5.2
2017-Oct-16 04:55N 48°34' W 122°35'3 8.3
2017-Oct-16 04:30N 48°37' W 122°38'5 9.0
2017-Oct-16 04:00N 48°41' W 122°41'5 9.0
2017-Oct-16 03:30N 48°45' W 122°44'4 8.9
2017-Oct-16 03:00N 48°49' W 122°45'2 4.3
2017-Oct-16 02:27N 48°52' W 122°46'2 1.5
2017-Oct-16 01:22N 48°50' W 122°46'2 5.5
2017-Oct-16 00:59N 48°49' W 122°43'0 0.2
2017-Oct-16 00:19N 48°49' W 122°43'0 0.0
2017-Oct-15 23:59N 48°49' W 122°43'0 0.0
2017-Oct-15 23:30N 48°49' W 122°43'4 6.8
2017-Oct-15 22:54N 48°45' W 122°45'3 7.9
2017-Oct-15 22:30N 48°42' W 122°43'4 7.3
2017-Oct-15 22:00N 48°39' W 122°40'3 6.7
2017-Oct-15 21:30N 48°36' W 122°37'4 7.2
2017-Oct-15 20:55N 48°33' W 122°34'2 4.5
2017-Oct-15 20:28N 48°31' W 122°35'0 0.1
2017-Oct-15 20:00N 48°31' W 122°35'0 0.8
2017-Oct-15 19:29N 48°31' W 122°34'0 0.9
2017-Oct-15 18:59N 48°31' W 122°35'1 3.0
2017-Oct-15 18:29N 48°31' W 122°37'0 0.0
2017-Oct-15 18:00N 48°31' W 122°37'0 0.0
2017-Oct-15 17:30N 48°31' W 122°37'0 0.0
2017-Oct-15 17:00N 48°31' W 122°37'0 0.0
2017-Oct-15 16:29N 48°31' W 122°37'0 0.0
2017-Oct-15 16:00N 48°31' W 122°37'0 0.0
2017-Oct-15 15:29N 48°31' W 122°37'0 0.0
2017-Oct-15 14:55N 48°31' W 122°37'1 1.5
2017-Oct-15 13:59N 48°31' W 122°35'0 0.5
2017-Oct-15 13:23N 48°31' W 122°35'0 0.1
2017-Oct-15 12:59N 48°31' W 122°35'1 1.8
2017-Oct-15 12:23N 48°31' W 122°36'0 1.0
2017-Oct-15 12:00N 48°31' W 122°36'0 0.0
2017-Oct-15 11:30N 48°31' W 122°36'0 0.0
2017-Oct-15 11:00N 48°31' W 122°36'0 0.0
2017-Oct-15 10:30N 48°31' W 122°36'0 0.0
2017-Oct-15 10:00N 48°31' W 122°36'0 0.0
2017-Oct-15 09:30N 48°31' W 122°36'0 0.0
2017-Oct-15 09:00N 48°31' W 122°36'0 0.0
2017-Oct-15 08:30N 48°31' W 122°36'0 0.0
2017-Oct-15 08:00N 48°31' W 122°36'0 0.0
2017-Oct-15 07:30N 48°31' W 122°36'0 0.0
2017-Oct-15 06:59N 48°31' W 122°36'0 0.0
2017-Oct-15 06:30N 48°31' W 122°36'0 0.0
2017-Oct-15 06:00N 48°31' W 122°36'0 0.0
2017-Oct-15 05:30N 48°31' W 122°36'0 0.0
2017-Oct-15 05:00N 48°31' W 122°36'0 0.0
2017-Oct-15 04:30N 48°31' W 122°36'0 0.0
2017-Oct-15 04:00N 48°31' W 122°36'0 0.0
2017-Oct-15 03:30N 48°31' W 122°36'0 0.0
2017-Oct-15 03:00N 48°31' W 122°36'0 0.0
2017-Oct-15 02:30N 48°31' W 122°36'0 0.0
2017-Oct-15 02:00N 48°31' W 122°36'0 0.0
2017-Oct-15 01:30N 48°31' W 122°36'0 0.0
2017-Oct-15 01:00N 48°31' W 122°36'0 0.0
2017-Oct-15 00:30N 48°31' W 122°36'0 0.0
2017-Oct-15 00:00N 48°31' W 122°36'0 0.0
2017-Oct-14 23:30N 48°31' W 122°36'0 0.0
2017-Oct-14 23:00N 48°31' W 122°36'0 0.0
2017-Oct-14 22:30N 48°31' W 122°36'0 0.0
2017-Oct-14 22:00N 48°31' W 122°36'0 0.0
2017-Oct-14 21:30N 48°31' W 122°36'0 0.0
2017-Oct-14 21:00N 48°31' W 122°36'0 0.0
2017-Oct-14 20:30N 48°31' W 122°36'0 0.0
2017-Oct-14 20:00N 48°31' W 122°36'0 0.0
2017-Oct-14 19:30N 48°31' W 122°36'0 0.0
2017-Oct-14 19:00N 48°31' W 122°36'0 0.0
2017-Oct-14 18:30N 48°31' W 122°36'0 0.0
2017-Oct-14 18:00N 48°31' W 122°36'0 0.0
2017-Oct-14 17:30N 48°31' W 122°36'0 0.0
2017-Oct-14 17:00N 48°31' W 122°36'0 0.0
2017-Oct-14 16:30N 48°31' W 122°36'0 0.0
2017-Oct-14 16:00N 48°31' W 122°36'0 0.0
2017-Oct-14 15:29N 48°31' W 122°36'1 1.6
2017-Oct-14 15:00N 48°32' W 122°35'3 6.0
2017-Oct-14 14:30N 48°34' W 122°35'2 4.7
2017-Oct-14 14:00N 48°36' W 122°33'1 2.0
2017-Oct-14 13:31N 48°37' W 122°33'4 7.2
2017-Oct-14 13:00N 48°38' W 122°39'510.8
2017-Oct-14 12:30N 48°42' W 122°44'611.1
2017-Oct-14 12:00N 48°47' W 122°47'4 8.4
2017-Oct-14 11:30N 48°52' W 122°45'0 0.1
2017-Oct-14 10:52N 48°52' W 122°45'0 0.2
2017-Oct-14 10:30N 48°51' W 122°45'4 7.3
2017-Oct-14 10:00N 48°48' W 122°45'5 9.0
2017-Oct-14 09:30N 48°43' W 122°44'4 8.6
2017-Oct-14 09:00N 48°40' W 122°41'4 8.4
2017-Oct-14 08:30N 48°36' W 122°37'4 8.5
2017-Oct-14 07:59N 48°32' W 122°34'2 4.7
2017-Oct-14 07:30N 48°31' W 122°37'0 0.0
2017-Oct-14 07:00N 48°31' W 122°37'0 0.0
2017-Oct-14 06:30N 48°31' W 122°37'0 0.0
2017-Oct-14 06:00N 48°31' W 122°37'0 0.0
2017-Oct-14 05:30N 48°31' W 122°37'0 0.0
2017-Oct-14 05:00N 48°31' W 122°37'0 0.0
2017-Oct-14 04:30N 48°31' W 122°37'0 0.0
2017-Oct-14 04:00N 48°31' W 122°37'0 0.0
2017-Oct-14 03:30N 48°31' W 122°37'0 0.0
2017-Oct-14 03:00N 48°31' W 122°37'0 0.0
2017-Oct-14 02:30N 48°31' W 122°37'0 0.0
2017-Oct-14 02:00N 48°31' W 122°37'0 0.0
2017-Oct-14 01:30N 48°31' W 122°37'0 0.0
2017-Oct-14 01:00N 48°31' W 122°37'0 0.0
2017-Oct-14 00:30N 48°31' W 122°37'0 0.0
2017-Oct-14 00:00N 48°31' W 122°37'0 0.0
2017-Oct-13 23:30N 48°31' W 122°37'0 0.1
2017-Oct-13 20:40N 48°31' W 122°37'0 0.0
2017-Oct-13 20:23N 48°31' W 122°37'0 0.0
2017-Oct-13 17:23N 48°31' W 122°37'0 0.0
2017-Oct-13 16:59N 48°31' W 122°37'0 0.0
2017-Oct-13 16:21N 48°31' W 122°37'0 0.0
2017-Oct-13 16:00N 48°31' W 122°37'0 0.0
2017-Oct-13 15:30N 48°31' W 122°37'0 0.0
2017-Oct-13 15:00N 48°31' W 122°37'0 0.0
2017-Oct-13 14:30N 48°31' W 122°37'0 0.0
2017-Oct-13 13:59N 48°31' W 122°37'0 0.0
2017-Oct-13 13:30N 48°31' W 122°37'0 0.0
2017-Oct-13 12:53N 48°31' W 122°37'0 0.0
2017-Oct-13 12:30N 48°31' W 122°37'0 0.0
2017-Oct-13 11:54N 48°31' W 122°37'0 0.0
2017-Oct-13 11:22N 48°31' W 122°37'0 0.1
2017-Oct-13 11:00N 48°31' W 122°37'3 5.6
2017-Oct-13 10:30N 48°34' W 122°35'5 9.4
2017-Oct-13 10:00N 48°38' W 122°39'510.6
2017-Oct-13 09:30N 48°42' W 122°43'510.2
2017-Oct-13 09:00N 48°47' W 122°45'4 1.9
2017-Oct-13 07:04N 48°51' W 122°45'0 4.6
2017-Oct-13 06:58N 48°51' W 122°45'4 8.7
2017-Oct-13 06:29N 48°46' W 122°46'510.3
2017-Oct-13 06:00N 48°42' W 122°43'510.3
2017-Oct-13 05:31N 48°38' W 122°38'3 6.4
2017-Oct-13 05:00N 48°36' W 122°34'0 0.9
2017-Oct-13 04:29N 48°37' W 122°34'0 0.4
2017-Oct-13 04:00N 48°36' W 122°34'0 1.0
2017-Oct-13 03:31N 48°36' W 122°34'4 7.4
2017-Oct-13 02:59N 48°32' W 122°34'2 4.6
2017-Oct-13 02:30N 48°31' W 122°37'0 0.0
2017-Oct-13 02:00N 48°31' W 122°37'0 0.0
2017-Oct-13 01:30N 48°31' W 122°37'0 0.0
2017-Oct-13 01:00N 48°31' W 122°37'0 0.0
2017-Oct-13 00:30N 48°31' W 122°37'0 0.0
2017-Oct-13 00:00N 48°31' W 122°37'0 0.0
2017-Oct-12 23:30N 48°31' W 122°37'0 0.0
2017-Oct-12 23:00N 48°31' W 122°37'0 0.0
2017-Oct-12 22:30N 48°31' W 122°37'3 5.7
2017-Oct-12 22:00N 48°34' W 122°35'510.9
2017-Oct-12 21:30N 48°39' W 122°39'510.4
2017-Oct-12 20:59N 48°43' W 122°44'510.4
2017-Oct-12 20:29N 48°48' W 122°44'1 1.5
2017-Oct-12 19:34N 48°50' W 122°43'0 7.2
2017-Oct-12 19:30N 48°49' W 122°43'0 0.5
2017-Oct-12 18:53N 48°49' W 122°43'0 0.0
2017-Oct-12 18:10N 48°49' W 122°43'0 0.0
2017-Oct-12 17:41N 48°49' W 122°43'0 0.0
2017-Oct-12 17:27N 48°49' W 122°43'0 0.2
2017-Oct-12 16:54N 48°49' W 122°43'3 6.9
2017-Oct-12 16:26N 48°51' W 122°46'1 1.0
2017-Oct-12 15:56N 48°52' W 122°46'0 0.4
2017-Oct-12 15:26N 48°51' W 122°46'0 0.1
2017-Oct-12 15:00N 48°51' W 122°46'1 1.0
2017-Oct-12 14:25N 48°51' W 122°46'3 4.7
2017-Oct-12 13:49N 48°48' W 122°45'3 7.9
2017-Oct-12 13:26N 48°45' W 122°44'4 8.7
2017-Oct-12 13:00N 48°42' W 122°42'4 7.4
2017-Oct-12 12:30N 48°38' W 122°44'3 6.8
2017-Oct-12 12:00N 48°35' W 122°45'3 6.9
2017-Oct-12 11:31N 48°31' W 122°44'3 6.1
2017-Oct-12 11:00N 48°28' W 122°44'3 5.6
2017-Oct-12 10:30N 48°26' W 122°46'3 6.0
2017-Oct-12 09:59N 48°23' W 122°49'3 6.5
2017-Oct-12 09:30N 48°22' W 122°53'9 7.5
2017-Oct-12 08:19N 48°17' W 123°04'2 7.1
2017-Oct-12 07:59N 48°16' W 123°07'4 7.7
2017-Oct-12 07:30N 48°13' W 123°12'4 7.4
2017-Oct-12 07:00N 48°11' W 123°17'3 6.8
2017-Oct-12 06:30N 48°10' W 123°21'3 5.7
2017-Oct-12 06:00N 48°08' W 123°24'0 0.4
2017-Oct-12 05:30N 48°08' W 123°24'0 0.9
2017-Oct-12 05:00N 48°07' W 123°25'0 0.0
2017-Oct-12 04:30N 48°07' W 123°25'0 0.1
2017-Oct-12 04:00N 48°07' W 123°25'1 1.3
2017-Oct-12 03:30N 48°08' W 123°25'1 2.0
2017-Oct-12 03:00N 48°08' W 123°27'1 1.2
2017-Oct-12 02:30N 48°08' W 123°26'0 0.9
2017-Oct-12 02:00N 48°07' W 123°25'0 0.0
2017-Oct-12 01:30N 48°07' W 123°25'0 0.0
2017-Oct-12 01:00N 48°07' W 123°25'1 1.2
2017-Oct-12 00:30N 48°08' W 123°24'1 2.7
2017-Oct-12 00:00N 48°08' W 123°22'611.4
2017-Oct-11 23:30N 48°12' W 123°16'713.9
2017-Oct-11 22:59N 48°16' W 123°08'713.8
2017-Oct-11 22:30N 48°20' W 122°59'713.5
2017-Oct-11 22:00N 48°24' W 122°51'714.1
2017-Oct-11 21:30N 48°29' W 122°44'611.3
2017-Oct-11 21:00N 48°32' W 122°36'1 2.4
2017-Oct-11 20:23N 48°31' W 122°35'1 1.6
2017-Oct-11 19:59N 48°31' W 122°35'1 2.1
2017-Oct-11 19:30N 48°31' W 122°37'0 0.0
2017-Oct-11 19:00N 48°31' W 122°37'0 0.0
2017-Oct-11 18:30N 48°31' W 122°37'0 0.0
2017-Oct-11 18:00N 48°31' W 122°37'2 2.0
2017-Oct-11 17:13N 48°31' W 122°35'0 0.5
2017-Oct-11 16:55N 48°31' W 122°35'19 0.9
2017-Oct-10 20:49N 48°49' W 122°43'2 5.0
2017-Oct-10 20:29N 48°50' W 122°45'1 1.2
2017-Oct-10 19:25N 48°51' W 122°45'2 2.9
2017-Oct-10 18:43N 48°49' W 122°46'2 9.5
2017-Oct-10 18:30N 48°47' W 122°45'5 9.1
2017-Oct-10 18:00N 48°43' W 122°43'510.0
2017-Oct-10 17:30N 48°39' W 122°39'610.9
2017-Oct-10 16:55N 48°33' W 122°34'2 4.8
2017-Oct-10 16:25N 48°31' W 122°37'0 0.0
2017-Oct-10 15:49N 48°31' W 122°37'0 0.0
2017-Oct-10 15:25N 48°31' W 122°37'0 0.0
2017-Oct-10 14:58N 48°31' W 122°37'0 0.0
2017-Oct-10 13:52N 48°31' W 122°37'0 0.0
2017-Oct-10 13:28N 48°31' W 122°37'0 0.0
2017-Oct-10 12:58N 48°31' W 122°37'0 0.0
2017-Oct-10 12:07N 48°31' W 122°37'0 0.0
2017-Oct-10 11:58N 48°31' W 122°37'0 0.0
2017-Oct-10 11:28N 48°31' W 122°37'3 6.3
2017-Oct-10 10:59N 48°31' W 122°42'4 8.5
2017-Oct-10 10:30N 48°27' W 122°44'4 8.2
2017-Oct-10 10:00N 48°24' W 122°48'4 7.8
2017-Oct-10 09:30N 48°22' W 122°53'8 8.4
2017-Oct-10 08:29N 48°17' W 123°04'1 1.8
2017-Oct-10 07:57N 48°17' W 123°05'712.8
2017-Oct-10 07:24N 48°21' W 122°56'513.2
2017-Oct-10 07:00N 48°24' W 122°49'612.0
2017-Oct-10 06:30N 48°29' W 122°45'612.0
2017-Oct-10 06:01N 48°35' W 122°45'611.1
2017-Oct-10 05:31N 48°40' W 122°43'4 7.6
2017-Oct-10 04:59N 48°44' W 122°46'5 9.6
2017-Oct-10 04:27N 48°49' W 122°44'2 3.1
2017-Oct-10 03:56N 48°50' W 122°43'0 0.1
2017-Oct-09 22:38N 48°51' W 122°44'1 5.0
2017-Oct-09 22:26N 48°51' W 122°45'1 2.0
2017-Oct-09 22:00N 48°52' W 122°46'0 0.3
2017-Oct-09 21:30N 48°52' W 122°46'5 8.9
2017-Oct-09 20:58N 48°47' W 122°45'5 9.0
2017-Oct-09 20:28N 48°43' W 122°43'4 8.3
2017-Oct-09 20:00N 48°39' W 122°41'5 9.0
2017-Oct-09 19:30N 48°36' W 122°36'4 8.9
2017-Oct-09 19:00N 48°31' W 122°34'2 3.3
2017-Oct-09 18:30N 48°31' W 122°37'0 0.0
2017-Oct-09 18:00N 48°31' W 122°37'0 0.0
2017-Oct-09 17:30N 48°31' W 122°37'0 0.0
2017-Oct-09 17:00N 48°31' W 122°37'0 0.0
2017-Oct-09 16:30N 48°31' W 122°37'0 0.0
2017-Oct-09 16:00N 48°31' W 122°37'0 0.0
2017-Oct-09 15:30N 48°31' W 122°37'0 0.0
2017-Oct-09 15:00N 48°31' W 122°37'0 0.0
2017-Oct-09 14:30N 48°31' W 122°37'0 0.0
2017-Oct-09 14:00N 48°31' W 122°37'0 0.0
2017-Oct-09 13:30N 48°31' W 122°37'0 0.0
2017-Oct-09 13:00N 48°31' W 122°37'0 0.0
2017-Oct-09 12:30N 48°31' W 122°37'0 0.0
2017-Oct-09 12:00N 48°31' W 122°37'0 0.0
2017-Oct-09 11:30N 48°31' W 122°37'0 0.0
2017-Oct-09 11:00N 48°31' W 122°37'0 0.0
2017-Oct-09 10:30N 48°31' W 122°37'0 0.0
2017-Oct-09 10:00N 48°31' W 122°37'0 0.0
2017-Oct-09 09:30N 48°31' W 122°37'0 0.0
2017-Oct-09 09:00N 48°31' W 122°37'0 0.0
2017-Oct-09 08:30N 48°31' W 122°37'0 0.0
2017-Oct-09 08:00N 48°31' W 122°37'0 0.0
2017-Oct-09 07:30N 48°31' W 122°37'0 0.0
2017-Oct-09 07:00N 48°31' W 122°37'0 0.0
2017-Oct-09 06:30N 48°31' W 122°37'0 0.0
2017-Oct-09 06:00N 48°31' W 122°37'0 0.0
2017-Oct-09 05:30N 48°31' W 122°37'0 0.0
2017-Oct-09 05:00N 48°31' W 122°37'0 0.0
2017-Oct-09 04:30N 48°31' W 122°37'0 0.0
2017-Oct-09 04:00N 48°31' W 122°37'0 0.0
2017-Oct-09 03:30N 48°31' W 122°37'0 0.0
2017-Oct-09 03:00N 48°31' W 122°37'0 0.0
2017-Oct-09 02:30N 48°31' W 122°37'0 0.0
2017-Oct-09 02:00N 48°31' W 122°37'0 0.0
2017-Oct-09 01:30N 48°31' W 122°37'0 0.0
2017-Oct-09 01:00N 48°31' W 122°37'0 0.0
2017-Oct-09 00:30N 48°31' W 122°37'0 0.0
2017-Oct-09 00:00N 48°31' W 122°37'  
Track history (hours):
 
Tides and Currents Weather Stations Pressure Air Temp Water Temp Dewpoint Dewpoint Depression Visibility Wind Speed Wind Dir Waves Ship Positions

Response

Owner: VESSEL MANAGEMENT SERVICES INC, SEATTLE, WA. More information available from US FCC via Universal Licensing System and Coast Guard Vessel Documentation Center.

Last reported at 2017-Oct-18 23:54 UTC. Time now 2017-Oct-19 00:27 UTC.
Position N 48°49' W 122°43'.

Length 40 m; draft 6.1 m.

Type: Tug. MMSI: 366866930.

Date/timePositionNaut miles runAvg speedWind from/ knotsBaromVisibWave heightAir tempDewpointWater temp
2017-Oct-18 23:54N 48°49' W 122°43'2 4.7
2017-Oct-18 23:25N 48°51' W 122°45'0 1.1
2017-Oct-18 22:57N 48°51' W 122°46'0 0.3
2017-Oct-18 22:25N 48°51' W 122°46'0 0.2
2017-Oct-18 21:59N 48°51' W 122°46'0 0.2
2017-Oct-18 21:26N 48°51' W 122°46'0 0.6
2017-Oct-18 21:00N 48°51' W 122°45'610.0
2017-Oct-18 20:22N 48°45' W 122°43'0 0.1
2017-Oct-18 20:00N 48°45' W 122°43'0 0.1
2017-Oct-18 19:18N 48°45' W 122°43'0 0.0
2017-Oct-18 18:20N 48°45' W 122°43'0 0.0
2017-Oct-18 17:58N 48°45' W 122°43'0 0.0
2017-Oct-18 17:30N 48°45' W 122°43'0 0.3
2017-Oct-18 16:54N 48°45' W 122°43'0 0.1
2017-Oct-18 16:28N 48°45' W 122°43'0 0.0
2017-Oct-18 14:58N 48°45' W 122°43'0 0.0
2017-Oct-18 13:58N 48°45' W 122°43'0 0.0
2017-Oct-18 13:30N 48°45' W 122°43'0 0.0
2017-Oct-18 12:59N 48°45' W 122°43'0 0.0
2017-Oct-18 12:30N 48°45' W 122°43'0 0.0
2017-Oct-18 11:54N 48°45' W 122°43'0 0.0
2017-Oct-18 11:27N 48°45' W 122°43'0 0.0
2017-Oct-18 10:58N 48°45' W 122°43'0 0.0
2017-Oct-18 10:29N 48°45' W 122°43'0 0.0
2017-Oct-18 10:00N 48°45' W 122°43'0 0.0
2017-Oct-18 09:26N 48°45' W 122°43'0 0.0
2017-Oct-18 08:58N 48°45' W 122°43'0 0.0
2017-Oct-18 08:30N 48°45' W 122°43'0 0.0
2017-Oct-18 07:55N 48°45' W 122°43'0 0.0
2017-Oct-18 07:21N 48°45' W 122°43'0 0.0
2017-Oct-18 07:00N 48°45' W 122°43'0 0.0
2017-Oct-18 06:29N 48°45' W 122°43'0 0.1
2017-Oct-18 06:00N 48°45' W 122°43'0 0.0
2017-Oct-18 05:30N 48°45' W 122°43'0 0.0
2017-Oct-18 04:43N 48°45' W 122°43'1 1.2
2017-Oct-18 04:15N 48°45' W 122°44'2 5.8
2017-Oct-18 03:55N 48°44' W 122°44'2 5.8
2017-Oct-18 03:30N 48°41' W 122°42'3 6.5
2017-Oct-18 03:00N 48°39' W 122°39'4 7.1
2017-Oct-18 02:30N 48°36' W 122°36'4 7.2
2017-Oct-18 01:59N 48°32' W 122°34'2 4.6
2017-Oct-18 01:30N 48°31' W 122°37'0 0.0
2017-Oct-18 01:00N 48°31' W 122°37'0 0.0
2017-Oct-18 00:30N 48°31' W 122°37'0 0.0
2017-Oct-18 00:00N 48°31' W 122°37'0 0.0
2017-Oct-17 23:30N 48°31' W 122°37'0 0.0
2017-Oct-17 23:00N 48°31' W 122°37'0 0.0
2017-Oct-17 22:30N 48°31' W 122°37'0 0.0
2017-Oct-17 22:00N 48°31' W 122°37'0 0.0
2017-Oct-17 21:30N 48°31' W 122°37'0 0.0
2017-Oct-17 21:00N 48°31' W 122°37'0 0.0
2017-Oct-17 20:30N 48°31' W 122°37'0 0.0
2017-Oct-17 20:00N 48°31' W 122°37'0 0.0
2017-Oct-17 19:30N 48°31' W 122°37'0 0.0
2017-Oct-17 19:01N 48°31' W 122°37'0 0.0
2017-Oct-17 18:30N 48°31' W 122°37'0 0.0
2017-Oct-17 18:00N 48°31' W 122°37'0 0.0
2017-Oct-17 17:30N 48°31' W 122°37'0 0.0
2017-Oct-17 17:00N 48°31' W 122°37'0 0.0
2017-Oct-17 16:30N 48°31' W 122°37'0 0.0
2017-Oct-17 16:00N 48°31' W 122°37'0 0.0
2017-Oct-17 15:30N 48°31' W 122°37'0 0.0
2017-Oct-17 15:00N 48°31' W 122°37'0 0.0
2017-Oct-17 14:30N 48°31' W 122°37'0 0.0
2017-Oct-17 14:00N 48°31' W 122°37'0 0.0
2017-Oct-17 13:30N 48°31' W 122°37'0 0.0
2017-Oct-17 13:00N 48°31' W 122°37'0 0.0
2017-Oct-17 12:30N 48°31' W 122°37'0 0.0
2017-Oct-17 12:00N 48°31' W 122°37'0 0.0
2017-Oct-17 11:30N 48°31' W 122°37'2 3.0
2017-Oct-17 10:59N 48°31' W 122°35'0 0.0
2017-Oct-17 10:27N 48°31' W 122°35'1 1.7
2017-Oct-17 09:48N 48°31' W 122°36'2 6.1
2017-Oct-17 09:30N 48°31' W 122°39'4 8.7
2017-Oct-17 09:00N 48°35' W 122°40'510.7
2017-Oct-17 08:30N 48°40' W 122°41'611.8
2017-Oct-17 08:00N 48°46' W 122°45'611.3
2017-Oct-17 07:30N 48°51' W 122°46'0 0.6
2017-Oct-17 06:58N 48°52' W 122°46'0 0.3
2017-Oct-17 06:29N 48°52' W 122°46'0 0.3
2017-Oct-17 06:00N 48°52' W 122°46'0 0.4
2017-Oct-17 05:29N 48°52' W 122°46'2 3.2
2017-Oct-17 04:52N 48°50' W 122°45'5 9.4
2017-Oct-17 04:22N 48°45' W 122°44'3 7.7
2017-Oct-17 03:59N 48°42' W 122°43'4 7.6
2017-Oct-17 03:30N 48°39' W 122°40'4 8.2
2017-Oct-17 03:00N 48°36' W 122°37'4 8.4
2017-Oct-17 02:30N 48°32' W 122°34'2 4.4
2017-Oct-17 02:00N 48°31' W 122°37'0 0.0
2017-Oct-17 01:30N 48°31' W 122°37'0 0.0
2017-Oct-17 01:00N 48°31' W 122°37'0 0.0
2017-Oct-17 00:30N 48°31' W 122°37'0 0.0
2017-Oct-17 00:00N 48°31' W 122°37'0 0.0
2017-Oct-16 23:30N 48°31' W 122°37'0 0.0
2017-Oct-16 23:00N 48°31' W 122°37'0 0.0
2017-Oct-16 22:30N 48°31' W 122°37'0 0.0
2017-Oct-16 22:00N 48°31' W 122°37'1 2.7
2017-Oct-16 21:29N 48°31' W 122°35'0 0.4
2017-Oct-16 20:57N 48°31' W 122°35'0 0.0
2017-Oct-16 19:52N 48°31' W 122°35'0 0.3
2017-Oct-16 19:30N 48°31' W 122°35'1 1.3
2017-Oct-16 18:53N 48°31' W 122°36'1 1.8
2017-Oct-16 18:30N 48°31' W 122°37'0 0.0
2017-Oct-16 18:00N 48°31' W 122°37'0 0.0
2017-Oct-16 17:30N 48°31' W 122°37'0 0.0
2017-Oct-16 17:00N 48°31' W 122°37'0 0.0
2017-Oct-16 16:30N 48°31' W 122°37'0 0.0
2017-Oct-16 16:00N 48°31' W 122°37'0 0.0
2017-Oct-16 15:30N 48°31' W 122°37'0 0.0
2017-Oct-16 15:00N 48°31' W 122°37'0 0.0
2017-Oct-16 14:00N 48°31' W 122°37'0 0.0
2017-Oct-16 13:30N 48°31' W 122°37'0 0.0
2017-Oct-16 13:00N 48°31' W 122°37'0 0.0
2017-Oct-16 12:30N 48°31' W 122°37'0 0.0
2017-Oct-16 12:00N 48°31' W 122°37'0 0.0
2017-Oct-16 11:30N 48°31' W 122°37'0 0.0
2017-Oct-16 11:00N 48°31' W 122°37'0 0.0
2017-Oct-16 10:30N 48°31' W 122°37'0 0.0
2017-Oct-16 10:00N 48°31' W 122°37'0 0.0
2017-Oct-16 09:30N 48°31' W 122°37'0 0.0
2017-Oct-16 09:00N 48°31' W 122°37'0 0.0
2017-Oct-16 08:30N 48°31' W 122°37'0 0.0
2017-Oct-16 08:00N 48°31' W 122°37'0 0.0
2017-Oct-16 07:30N 48°31' W 122°37'0 0.0
2017-Oct-16 07:00N 48°31' W 122°37'0 0.0
2017-Oct-16 06:30N 48°31' W 122°37'0 0.0
2017-Oct-16 06:00N 48°31' W 122°37'0 0.1
2017-Oct-16 05:30N 48°31' W 122°37'3 5.2
2017-Oct-16 04:55N 48°34' W 122°35'3 8.3
2017-Oct-16 04:30N 48°37' W 122°38'5 9.0
2017-Oct-16 04:00N 48°41' W 122°41'5 9.0
2017-Oct-16 03:30N 48°45' W 122°44'4 8.9
2017-Oct-16 03:00N 48°49' W 122°45'2 4.3
2017-Oct-16 02:27N 48°52' W 122°46'2 1.5
2017-Oct-16 01:22N 48°50' W 122°46'2 5.5
2017-Oct-16 00:59N 48°49' W 122°43'0 0.2
2017-Oct-16 00:19N 48°49' W 122°43'0 0.0
2017-Oct-15 23:59N 48°49' W 122°43'0 0.0
2017-Oct-15 23:30N 48°49' W 122°43'4 6.8
2017-Oct-15 22:54N 48°45' W 122°45'3 7.9
2017-Oct-15 22:30N 48°42' W 122°43'4 7.3
2017-Oct-15 22:00N 48°39' W 122°40'3 6.7
2017-Oct-15 21:30N 48°36' W 122°37'4 7.2
2017-Oct-15 20:55N 48°33' W 122°34'2 4.5
2017-Oct-15 20:28N 48°31' W 122°35'0 0.1
2017-Oct-15 20:00N 48°31' W 122°35'0 0.8
2017-Oct-15 19:29N 48°31' W 122°34'0 0.9
2017-Oct-15 18:59N 48°31' W 122°35'1 3.0
2017-Oct-15 18:29N 48°31' W 122°37'0 0.0
2017-Oct-15 18:00N 48°31' W 122°37'0 0.0
2017-Oct-15 17:30N 48°31' W 122°37'0 0.0
2017-Oct-15 17:00N 48°31' W 122°37'0 0.0
2017-Oct-15 16:29N 48°31' W 122°37'0 0.0
2017-Oct-15 16:00N 48°31' W 122°37'0 0.0
2017-Oct-15 15:29N 48°31' W 122°37'0 0.0
2017-Oct-15 14:55N 48°31' W 122°37'1 1.5
2017-Oct-15 13:59N 48°31' W 122°35'0 0.5
2017-Oct-15 13:23N 48°31' W 122°35'0 0.1
2017-Oct-15 12:59N 48°31' W 122°35'1 1.8
2017-Oct-15 12:23N 48°31' W 122°36'0 1.0
2017-Oct-15 12:00N 48°31' W 122°36'0 0.0
2017-Oct-15 11:30N 48°31' W 122°36'0 0.0
2017-Oct-15 11:00N 48°31' W 122°36'0 0.0
2017-Oct-15 10:30N 48°31' W 122°36'0 0.0
2017-Oct-15 10:00N 48°31' W 122°36'0 0.0
2017-Oct-15 09:30N 48°31' W 122°36'0 0.0
2017-Oct-15 09:00N 48°31' W 122°36'0 0.0
2017-Oct-15 08:30N 48°31' W 122°36'0 0.0
2017-Oct-15 08:00N 48°31' W 122°36'0 0.0
2017-Oct-15 07:30N 48°31' W 122°36'0 0.0
2017-Oct-15 06:59N 48°31' W 122°36'0 0.0
2017-Oct-15 06:30N 48°31' W 122°36'0 0.0
2017-Oct-15 06:00N 48°31' W 122°36'0 0.0
2017-Oct-15 05:30N 48°31' W 122°36'0 0.0
2017-Oct-15 05:00N 48°31' W 122°36'0 0.0
2017-Oct-15 04:30N 48°31' W 122°36'0 0.0
2017-Oct-15 04:00N 48°31' W 122°36'0 0.0
2017-Oct-15 03:30N 48°31' W 122°36'0 0.0
2017-Oct-15 03:00N 48°31' W 122°36'0 0.0
2017-Oct-15 02:30N 48°31' W 122°36'0 0.0
2017-Oct-15 02:00N 48°31' W 122°36'0 0.0
2017-Oct-15 01:30N 48°31' W 122°36'0 0.0
2017-Oct-15 01:00N 48°31' W 122°36'0 0.0
2017-Oct-15 00:30N 48°31' W 122°36'0 0.0
2017-Oct-15 00:00N 48°31' W 122°36'0 0.0
2017-Oct-14 23:30N 48°31' W 122°36'0 0.0
2017-Oct-14 23:00N 48°31' W 122°36'0 0.0
2017-Oct-14 22:30N 48°31' W 122°36'0 0.0
2017-Oct-14 22:00N 48°31' W 122°36'0 0.0
2017-Oct-14 21:30N 48°31' W 122°36'0 0.0
2017-Oct-14 21:00N 48°31' W 122°36'0 0.0
2017-Oct-14 20:30N 48°31' W 122°36'0 0.0
2017-Oct-14 20:00N 48°31' W 122°36'0 0.0
2017-Oct-14 19:30N 48°31' W 122°36'0 0.0
2017-Oct-14 19:00N 48°31' W 122°36'0 0.0
2017-Oct-14 18:30N 48°31' W 122°36'0 0.0
2017-Oct-14 18:00N 48°31' W 122°36'0 0.0
2017-Oct-14 17:30N 48°31' W 122°36'0 0.0
2017-Oct-14 17:00N 48°31' W 122°36'0 0.0
2017-Oct-14 16:30N 48°31' W 122°36'0 0.0
2017-Oct-14 16:00N 48°31' W 122°36'0 0.0
2017-Oct-14 15:29N 48°31' W 122°36'1 1.6
2017-Oct-14 15:00N 48°32' W 122°35'3 6.0
2017-Oct-14 14:30N 48°34' W 122°35'2 4.7
2017-Oct-14 14:00N 48°36' W 122°33'1 2.0
2017-Oct-14 13:31N 48°37' W 122°33'4 7.2
2017-Oct-14 13:00N 48°38' W 122°39'510.8
2017-Oct-14 12:30N 48°42' W 122°44'611.1
2017-Oct-14 12:00N 48°47' W 122°47'4 8.4
2017-Oct-14 11:30N 48°52' W 122°45'0 0.1
2017-Oct-14 10:52N 48°52' W 122°45'0 0.2
2017-Oct-14 10:30N 48°51' W 122°45'4 7.3
2017-Oct-14 10:00N 48°48' W 122°45'5 9.0
2017-Oct-14 09:30N 48°43' W 122°44'4 8.6
2017-Oct-14 09:00N 48°40' W 122°41'4 8.4
2017-Oct-14 08:30N 48°36' W 122°37'4 8.5
2017-Oct-14 07:59N 48°32' W 122°34'2 4.7
2017-Oct-14 07:30N 48°31' W 122°37'0 0.0
2017-Oct-14 07:00N 48°31' W 122°37'0 0.0
2017-Oct-14 06:30N 48°31' W 122°37'0 0.0
2017-Oct-14 06:00N 48°31' W 122°37'0 0.0
2017-Oct-14 05:30N 48°31' W 122°37'0 0.0
2017-Oct-14 05:00N 48°31' W 122°37'0 0.0
2017-Oct-14 04:30N 48°31' W 122°37'0 0.0
2017-Oct-14 04:00N 48°31' W 122°37'0 0.0
2017-Oct-14 03:30N 48°31' W 122°37'0 0.0
2017-Oct-14 03:00N 48°31' W 122°37'0 0.0
2017-Oct-14 02:30N 48°31' W 122°37'0 0.0
2017-Oct-14 02:00N 48°31' W 122°37'0 0.0
2017-Oct-14 01:30N 48°31' W 122°37'0 0.0
2017-Oct-14 01:00N 48°31' W 122°37'0 0.0
2017-Oct-14 00:30N 48°31' W 122°37'0 0.0
2017-Oct-14 00:00N 48°31' W 122°37'0 0.0
2017-Oct-13 23:30N 48°31' W 122°37'0 0.1
2017-Oct-13 20:40N 48°31' W 122°37'0 0.0
2017-Oct-13 20:23N 48°31' W 122°37'0 0.0
2017-Oct-13 17:23N 48°31' W 122°37'0 0.0
2017-Oct-13 16:59N 48°31' W 122°37'0 0.0
2017-Oct-13 16:21N 48°31' W 122°37'0 0.0
2017-Oct-13 16:00N 48°31' W 122°37'0 0.0
2017-Oct-13 15:30N 48°31' W 122°37'0 0.0
2017-Oct-13 15:00N 48°31' W 122°37'0 0.0
2017-Oct-13 14:30N 48°31' W 122°37'0 0.0
2017-Oct-13 13:59N 48°31' W 122°37'0 0.0
2017-Oct-13 13:30N 48°31' W 122°37'0 0.0
2017-Oct-13 12:53N 48°31' W 122°37'0 0.0
2017-Oct-13 12:30N 48°31' W 122°37'0 0.0
2017-Oct-13 11:54N 48°31' W 122°37'0 0.0
2017-Oct-13 11:22N 48°31' W 122°37'0 0.1
2017-Oct-13 11:00N 48°31' W 122°37'3 5.6
2017-Oct-13 10:30N 48°34' W 122°35'5 9.4
2017-Oct-13 10:00N 48°38' W 122°39'510.6
2017-Oct-13 09:30N 48°42' W 122°43'510.2
2017-Oct-13 09:00N 48°47' W 122°45'4 1.9
2017-Oct-13 07:04N 48°51' W 122°45'0 4.6
2017-Oct-13 06:58N 48°51' W 122°45'4 8.7
2017-Oct-13 06:29N 48°46' W 122°46'510.3
2017-Oct-13 06:00N 48°42' W 122°43'510.3
2017-Oct-13 05:31N 48°38' W 122°38'3 6.4
2017-Oct-13 05:00N 48°36' W 122°34'0 0.9
2017-Oct-13 04:29N 48°37' W 122°34'0 0.4
2017-Oct-13 04:00N 48°36' W 122°34'0 1.0
2017-Oct-13 03:31N 48°36' W 122°34'4 7.4
2017-Oct-13 02:59N 48°32' W 122°34'2 4.6
2017-Oct-13 02:30N 48°31' W 122°37'0 0.0
2017-Oct-13 02:00N 48°31' W 122°37'0 0.0
2017-Oct-13 01:30N 48°31' W 122°37'0 0.0
2017-Oct-13 01:00N 48°31' W 122°37'0 0.0
2017-Oct-13 00:30N 48°31' W 122°37'0 0.0
2017-Oct-13 00:00N 48°31' W 122°37'0 0.0
2017-Oct-12 23:30N 48°31' W 122°37'0 0.0
2017-Oct-12 23:00N 48°31' W 122°37'0 0.0
2017-Oct-12 22:30N 48°31' W 122°37'3 5.7
2017-Oct-12 22:00N 48°34' W 122°35'510.9
2017-Oct-12 21:30N 48°39' W 122°39'510.4
2017-Oct-12 20:59N 48°43' W 122°44'510.4
2017-Oct-12 20:29N 48°48' W 122°44'1 1.5
2017-Oct-12 19:34N 48°50' W 122°43'0 7.2
2017-Oct-12 19:30N 48°49' W 122°43'0 0.5
2017-Oct-12 18:53N 48°49' W 122°43'0 0.0
2017-Oct-12 18:10N 48°49' W 122°43'0 0.0
2017-Oct-12 17:41N 48°49' W 122°43'0 0.0
2017-Oct-12 17:27N 48°49' W 122°43'0 0.2
2017-Oct-12 16:54N 48°49' W 122°43'3 6.9
2017-Oct-12 16:26N 48°51' W 122°46'1 1.0
2017-Oct-12 15:56N 48°52' W 122°46'0 0.4
2017-Oct-12 15:26N 48°51' W 122°46'0 0.1
2017-Oct-12 15:00N 48°51' W 122°46'1 1.0
2017-Oct-12 14:25N 48°51' W 122°46'3 4.7
2017-Oct-12 13:49N 48°48' W 122°45'3 7.9
2017-Oct-12 13:26N 48°45' W 122°44'4 8.7
2017-Oct-12 13:00N 48°42' W 122°42'4 7.4
2017-Oct-12 12:30N 48°38' W 122°44'3 6.8
2017-Oct-12 12:00N 48°35' W 122°45'3 6.9
2017-Oct-12 11:31N 48°31' W 122°44'3 6.1
2017-Oct-12 11:00N 48°28' W 122°44'3 5.6
2017-Oct-12 10:30N 48°26' W 122°46'3 6.0
2017-Oct-12 09:59N 48°23' W 122°49'3 6.5
2017-Oct-12 09:30N 48°22' W 122°53'9 7.5
2017-Oct-12 08:19N 48°17' W 123°04'2 7.1
2017-Oct-12 07:59N 48°16' W 123°07'4 7.7
2017-Oct-12 07:30N 48°13' W 123°12'4 7.4
2017-Oct-12 07:00N 48°11' W 123°17'3 6.8
2017-Oct-12 06:30N 48°10' W 123°21'3 5.7
2017-Oct-12 06:00N 48°08' W 123°24'0 0.4
2017-Oct-12 05:30N 48°08' W 123°24'0 0.9
2017-Oct-12 05:00N 48°07' W 123°25'0 0.0
2017-Oct-12 04:30N 48°07' W 123°25'0 0.1
2017-Oct-12 04:00N 48°07' W 123°25'1 1.3
2017-Oct-12 03:30N 48°08' W 123°25'1 2.0
2017-Oct-12 03:00N 48°08' W 123°27'1 1.2
2017-Oct-12 02:30N 48°08' W 123°26'0 0.9
2017-Oct-12 02:00N 48°07' W 123°25'0 0.0
2017-Oct-12 01:30N 48°07' W 123°25'0 0.0
2017-Oct-12 01:00N 48°07' W 123°25'1 1.2
2017-Oct-12 00:30N 48°08' W 123°24'1 2.7
2017-Oct-12 00:00N 48°08' W 123°22'611.4
2017-Oct-11 23:30N 48°12' W 123°16'713.9
2017-Oct-11 22:59N 48°16' W 123°08'713.8
2017-Oct-11 22:30N 48°20' W 122°59'713.5
2017-Oct-11 22:00N 48°24' W 122°51'714.1
2017-Oct-11 21:30N 48°29' W 122°44'611.3
2017-Oct-11 21:00N 48°32' W 122°36'1 2.4
2017-Oct-11 20:23N 48°31' W 122°35'1 1.6
2017-Oct-11 19:59N 48°31' W 122°35'1 2.1
2017-Oct-11 19:30N 48°31' W 122°37'0 0.0
2017-Oct-11 19:00N 48°31' W 122°37'0 0.0
2017-Oct-11 18:30N 48°31' W 122°37'0 0.0
2017-Oct-11 18:00N 48°31' W 122°37'2 2.0
2017-Oct-11 17:13N 48°31' W 122°35'0 0.5
2017-Oct-11 16:55N 48°31' W 122°35'19 0.9
2017-Oct-10 20:49N 48°49' W 122°43'2 5.0
2017-Oct-10 20:29N 48°50' W 122°45'1 1.2
2017-Oct-10 19:25N 48°51' W 122°45'2 2.9
2017-Oct-10 18:43N 48°49' W 122°46'2 9.5
2017-Oct-10 18:30N 48°47' W 122°45'5 9.1
2017-Oct-10 18:00N 48°43' W 122°43'510.0
2017-Oct-10 17:30N 48°39' W 122°39'610.9
2017-Oct-10 16:55N 48°33' W 122°34'2 4.8
2017-Oct-10 16:25N 48°31' W 122°37'0 0.0
2017-Oct-10 15:49N 48°31' W 122°37'0 0.0
2017-Oct-10 15:25N 48°31' W 122°37'0 0.0
2017-Oct-10 14:58N 48°31' W 122°37'0 0.0
2017-Oct-10 13:52N 48°31' W 122°37'0 0.0
2017-Oct-10 13:28N 48°31' W 122°37'0 0.0
2017-Oct-10 12:58N 48°31' W 122°37'0 0.0
2017-Oct-10 12:07N 48°31' W 122°37'0 0.0
2017-Oct-10 11:58N 48°31' W 122°37'0 0.0
2017-Oct-10 11:28N 48°31' W 122°37'3 6.3
2017-Oct-10 10:59N 48°31' W 122°42'4 8.5
2017-Oct-10 10:30N 48°27' W 122°44'4 8.2
2017-Oct-10 10:00N 48°24' W 122°48'4 7.8
2017-Oct-10 09:30N 48°22' W 122°53'8 8.4
2017-Oct-10 08:29N 48°17' W 123°04'1 1.8
2017-Oct-10 07:57N 48°17' W 123°05'712.8
2017-Oct-10 07:24N 48°21' W 122°56'513.2
2017-Oct-10 07:00N 48°24' W 122°49'612.0
2017-Oct-10 06:30N 48°29' W 122°45'612.0
2017-Oct-10 06:01N 48°35' W 122°45'611.1
2017-Oct-10 05:31N 48°40' W 122°43'4 7.6
2017-Oct-10 04:59N 48°44' W 122°46'5 9.6
2017-Oct-10 04:27N 48°49' W 122°44'2 3.1
2017-Oct-10 03:56N 48°50' W 122°43'0 0.1
2017-Oct-09 22:38N 48°51' W 122°44'1 5.0
2017-Oct-09 22:26N 48°51' W 122°45'1 2.0
2017-Oct-09 22:00N 48°52' W 122°46'0 0.3
2017-Oct-09 21:30N 48°52' W 122°46'5 8.9
2017-Oct-09 20:58N 48°47' W 122°45'5 9.0
2017-Oct-09 20:28N 48°43' W 122°43'4 8.3
2017-Oct-09 20:00N 48°39' W 122°41'5 9.0
2017-Oct-09 19:30N 48°36' W 122°36'4 8.9
2017-Oct-09 19:00N 48°31' W 122°34'2 3.3
2017-Oct-09 18:30N 48°31' W 122°37'0 0.0
2017-Oct-09 18:00N 48°31' W 122°37'0 0.0
2017-Oct-09 17:30N 48°31' W 122°37'0 0.0
2017-Oct-09 17:00N 48°31' W 122°37'0 0.0
2017-Oct-09 16:30N 48°31' W 122°37'0 0.0
2017-Oct-09 16:00N 48°31' W 122°37'0 0.0
2017-Oct-09 15:30N 48°31' W 122°37'0 0.0
2017-Oct-09 15:00N 48°31' W 122°37'0 0.0
2017-Oct-09 14:30N 48°31' W 122°37'0 0.0
2017-Oct-09 14:00N 48°31' W 122°37'0 0.0
2017-Oct-09 13:30N 48°31' W 122°37'0 0.0
2017-Oct-09 13:00N 48°31' W 122°37'0 0.0
2017-Oct-09 12:30N 48°31' W 122°37'0 0.0
2017-Oct-09 12:00N 48°31' W 122°37'0 0.0
2017-Oct-09 11:30N 48°31' W 122°37'0 0.0
2017-Oct-09 11:00N 48°31' W 122°37'0 0.0
2017-Oct-09 10:30N 48°31' W 122°37'0 0.0
2017-Oct-09 10:00N 48°31' W 122°37'0 0.0
2017-Oct-09 09:30N 48°31' W 122°37'0 0.0
2017-Oct-09 09:00N 48°31' W 122°37'0 0.0
2017-Oct-09 08:30N 48°31' W 122°37'0 0.0
2017-Oct-09 08:00N 48°31' W 122°37'0 0.0
2017-Oct-09 07:30N 48°31' W 122°37'0 0.0
2017-Oct-09 07:00N 48°31' W 122°37'0 0.0
2017-Oct-09 06:30N 48°31' W 122°37'0 0.0
2017-Oct-09 06:00N 48°31' W 122°37'0 0.0
2017-Oct-09 05:30N 48°31' W 122°37'0 0.0
2017-Oct-09 05:00N 48°31' W 122°37'0 0.0
2017-Oct-09 04:30N 48°31' W 122°37'0 0.0
2017-Oct-09 04:00N 48°31' W 122°37'0 0.0
2017-Oct-09 03:30N 48°31' W 122°37'0 0.0
2017-Oct-09 03:00N 48°31' W 122°37'0 0.0
2017-Oct-09 02:30N 48°31' W 122°37'0 0.0
2017-Oct-09 02:00N 48°31' W 122°37'0 0.0
2017-Oct-09 01:30N 48°31' W 122°37'0 0.0
2017-Oct-09 01:00N 48°31' W 122°37'0 0.0
2017-Oct-09 00:30N 48°31' W 122°37'0 0.0
2017-Oct-09 00:00N 48°31' W 122°37'  

Dump ship's entire track history